sensor_id;sensor_type;location;lat;lon;timestamp;temperature;humidity
29031;DHT22;16122;50.236;11.734;2023-06-14T00:01:46;19.80;50.90
29031;DHT22;16122;50.236;11.734;2023-06-14T00:04:13;19.80;51.00
29031;DHT22;16122;50.236;11.734;2023-06-14T00:06:39;19.80;51.00
29031;DHT22;16122;50.236;11.734;2023-06-14T00:09:07;19.80;51.00
29031;DHT22;16122;50.236;11.734;2023-06-14T00:11:34;19.80;51.00
29031;DHT22;16122;50.236;11.734;2023-06-14T00:14:00;19.80;51.00
29031;DHT22;16122;50.236;11.734;2023-06-14T00:16:26;19.80;51.00
29031;DHT22;16122;50.236;11.734;2023-06-14T00:18:51;19.80;51.60
29031;DHT22;16122;50.236;11.734;2023-06-14T00:21:17;19.80;51.10
29031;DHT22;16122;50.236;11.734;2023-06-14T00:23:44;19.80;51.00
29031;DHT22;16122;50.236;11.734;2023-06-14T00:26:10;19.80;51.10
29031;DHT22;16122;50.236;11.734;2023-06-14T00:28:38;19.80;51.10
29031;DHT22;16122;50.236;11.734;2023-06-14T00:31:06;19.80;51.20
29031;DHT22;16122;50.236;11.734;2023-06-14T00:33:32;19.80;51.10
29031;DHT22;16122;50.236;11.734;2023-06-14T00:35:57;19.80;51.20
29031;DHT22;16122;50.236;11.734;2023-06-14T00:38:23;19.80;51.20
29031;DHT22;16122;50.236;11.734;2023-06-14T00:40:49;19.80;51.20
29031;DHT22;16122;50.236;11.734;2023-06-14T00:43:15;19.80;51.20
29031;DHT22;16122;50.236;11.734;2023-06-14T00:45:42;19.80;51.20
29031;DHT22;16122;50.236;11.734;2023-06-14T00:48:09;19.80;51.20
29031;DHT22;16122;50.236;11.734;2023-06-14T00:50:35;19.80;51.20
29031;DHT22;16122;50.236;11.734;2023-06-14T00:53:02;19.80;51.20
29031;DHT22;16122;50.236;11.734;2023-06-14T00:55:28;19.80;51.30
29031;DHT22;16122;50.236;11.734;2023-06-14T00:57:55;19.80;51.30
29031;DHT22;16122;50.236;11.734;2023-06-14T01:00:22;19.80;51.30
29031;DHT22;16122;50.236;11.734;2023-06-14T01:02:48;19.80;51.30
29031;DHT22;16122;50.236;11.734;2023-06-14T01:05:15;19.80;51.30
29031;DHT22;16122;50.236;11.734;2023-06-14T01:15:30;19.70;51.30
29031;DHT22;16122;50.236;11.734;2023-06-14T01:17:56;19.70;51.30
29031;DHT22;16122;50.236;11.734;2023-06-14T01:20:33;19.70;51.30
29031;DHT22;16122;50.236;11.734;2023-06-14T01:23:03;19.70;51.30
29031;DHT22;16122;50.236;11.734;2023-06-14T01:25:30;19.70;51.40
29031;DHT22;16122;50.236;11.734;2023-06-14T01:27:59;19.70;51.40
29031;DHT22;16122;50.236;11.734;2023-06-14T01:30:26;19.70;51.40
29031;DHT22;16122;50.236;11.734;2023-06-14T01:32:53;19.70;51.40
29031;DHT22;16122;50.236;11.734;2023-06-14T01:35:20;19.70;51.40
29031;DHT22;16122;50.236;11.734;2023-06-14T01:37:48;19.70;51.40
29031;DHT22;16122;50.236;11.734;2023-06-14T01:40:18;19.70;51.40
29031;DHT22;16122;50.236;11.734;2023-06-14T01:42:47;19.70;51.50
29031;DHT22;16122;50.236;11.734;2023-06-14T01:45:15;19.70;51.50
29031;DHT22;16122;50.236;11.734;2023-06-14T01:47:43;19.70;51.40
29031;DHT22;16122;50.236;11.734;2023-06-14T01:50:09;19.70;51.40
29031;DHT22;16122;50.236;11.734;2023-06-14T01:52:37;19.70;51.50
29031;DHT22;16122;50.236;11.734;2023-06-14T01:55:04;19.70;51.50
29031;DHT22;16122;50.236;11.734;2023-06-14T01:57:31;19.70;51.50
29031;DHT22;16122;50.236;11.734;2023-06-14T01:59:58;19.70;51.50
29031;DHT22;16122;50.236;11.734;2023-06-14T02:02:24;19.70;51.50
29031;DHT22;16122;50.236;11.734;2023-06-14T02:04:50;19.70;51.50
29031;DHT22;16122;50.236;11.734;2023-06-14T02:07:16;19.70;51.50
29031;DHT22;16122;50.236;11.734;2023-06-14T02:09:41;19.70;51.50
29031;DHT22;16122;50.236;11.734;2023-06-14T02:12:08;19.70;51.60
29031;DHT22;16122;50.236;11.734;2023-06-14T02:14:34;19.70;51.50
29031;DHT22;16122;50.236;11.734;2023-06-14T02:17:00;19.60;51.50
29031;DHT22;16122;50.236;11.734;2023-06-14T02:19:26;19.70;51.60
29031;DHT22;16122;50.236;11.734;2023-06-14T02:21:52;19.70;51.60
29031;DHT22;16122;50.236;11.734;2023-06-14T02:24:18;19.70;51.60
29031;DHT22;16122;50.236;11.734;2023-06-14T02:26:44;19.70;51.60
29031;DHT22;16122;50.236;11.734;2023-06-14T02:29:14;19.70;51.70
29031;DHT22;16122;50.236;11.734;2023-06-14T02:31:40;19.60;51.60
29031;DHT22;16122;50.236;11.734;2023-06-14T02:34:06;19.60;51.60
29031;DHT22;16122;50.236;11.734;2023-06-14T02:36:34;19.60;51.60
29031;DHT22;16122;50.236;11.734;2023-06-14T02:39:00;19.60;51.60
29031;DHT22;16122;50.236;11.734;2023-06-14T02:41:26;19.60;51.60
29031;DHT22;16122;50.236;11.734;2023-06-14T02:43:53;19.60;51.60
29031;DHT22;16122;50.236;11.734;2023-06-14T02:46:19;19.60;51.60
29031;DHT22;16122;50.236;11.734;2023-06-14T02:48:45;19.60;51.70
29031;DHT22;16122;50.236;11.734;2023-06-14T02:51:11;19.60;51.70
29031;DHT22;16122;50.236;11.734;2023-06-14T02:53:38;19.60;51.70
29031;DHT22;16122;50.236;11.734;2023-06-14T02:56:04;19.60;51.70
29031;DHT22;16122;50.236;11.734;2023-06-14T02:58:31;19.60;51.70
29031;DHT22;16122;50.236;11.734;2023-06-14T03:00:56;19.60;51.70
29031;DHT22;16122;50.236;11.734;2023-06-14T03:03:22;19.60;51.70
29031;DHT22;16122;50.236;11.734;2023-06-14T03:05:53;19.60;51.70
29031;DHT22;16122;50.236;11.734;2023-06-14T03:08:23;19.60;51.80
29031;DHT22;16122;50.236;11.734;2023-06-14T03:10:54;19.60;51.80
29031;DHT22;16122;50.236;11.734;2023-06-14T03:13:22;19.60;51.80
29031;DHT22;16122;50.236;11.734;2023-06-14T03:15:49;19.60;51.80
29031;DHT22;16122;50.236;11.734;2023-06-14T03:18:16;19.60;51.80
29031;DHT22;16122;50.236;11.734;2023-06-14T03:20:43;19.60;51.80
29031;DHT22;16122;50.236;11.734;2023-06-14T03:23:12;19.50;51.80
29031;DHT22;16122;50.236;11.734;2023-06-14T03:25:38;19.50;51.70
29031;DHT22;16122;50.236;11.734;2023-06-14T03:28:09;19.50;51.70
29031;DHT22;16122;50.236;11.734;2023-06-14T03:30:35;19.60;51.90
29031;DHT22;16122;50.236;11.734;2023-06-14T03:33:01;19.50;51.80
29031;DHT22;16122;50.236;11.734;2023-06-14T03:35:28;19.50;52.40
29031;DHT22;16122;50.236;11.734;2023-06-14T03:37:54;19.50;51.80
29031;DHT22;16122;50.236;11.734;2023-06-14T03:40:20;19.50;51.80
29031;DHT22;16122;50.236;11.734;2023-06-14T03:42:50;19.50;51.80
29031;DHT22;16122;50.236;11.734;2023-06-14T03:45:16;19.50;51.80
29031;DHT22;16122;50.236;11.734;2023-06-14T03:47:42;19.50;51.90
29031;DHT22;16122;50.236;11.734;2023-06-14T03:50:08;19.50;51.80
29031;DHT22;16122;50.236;11.734;2023-06-14T03:52:34;19.50;51.90
29031;DHT22;16122;50.236;11.734;2023-06-14T03:55:00;19.50;51.90
29031;DHT22;16122;50.236;11.734;2023-06-14T03:57:27;19.50;51.90
29031;DHT22;16122;50.236;11.734;2023-06-14T03:59:55;19.50;51.90
29031;DHT22;16122;50.236;11.734;2023-06-14T04:02:22;19.50;51.90
29031;DHT22;16122;50.236;11.734;2023-06-14T04:04:48;19.50;51.90
29031;DHT22;16122;50.236;11.734;2023-06-14T04:07:15;19.50;51.90
29031;DHT22;16122;50.236;11.734;2023-06-14T04:09:45;19.50;51.90
29031;DHT22;16122;50.236;11.734;2023-06-14T04:12:12;19.50;51.90
29031;DHT22;16122;50.236;11.734;2023-06-14T04:14:41;19.50;52.10
29031;DHT22;16122;50.236;11.734;2023-06-14T04:17:08;19.50;52.20
29031;DHT22;16122;50.236;11.734;2023-06-14T04:19:36;19.50;52.40
29031;DHT22;16122;50.236;11.734;2023-06-14T04:22:02;19.50;52.50
29031;DHT22;16122;50.236;11.734;2023-06-14T04:24:30;19.50;52.60
29031;DHT22;16122;50.236;11.734;2023-06-14T04:27:01;19.50;52.60
29031;DHT22;16122;50.236;11.734;2023-06-14T04:29:28;19.50;53.40
29031;DHT22;16122;50.236;11.734;2023-06-14T04:32:02;19.50;52.80
29031;DHT22;16122;50.236;11.734;2023-06-14T04:34:28;19.50;53.10
29031;DHT22;16122;50.236;11.734;2023-06-14T04:37:00;19.50;53.30
29031;DHT22;16122;50.236;11.734;2023-06-14T04:39:35;19.50;53.10
29031;DHT22;16122;50.236;11.734;2023-06-14T04:42:02;19.50;53.00
29031;DHT22;16122;50.236;11.734;2023-06-14T04:44:29;19.60;53.00
29031;DHT22;16122;50.236;11.734;2023-06-14T04:46:59;19.50;53.00
29031;DHT22;16122;50.236;11.734;2023-06-14T04:49:25;19.60;53.00
29031;DHT22;16122;50.236;11.734;2023-06-14T04:51:53;19.60;53.00
29031;DHT22;16122;50.236;11.734;2023-06-14T04:54:25;19.60;53.00
29031;DHT22;16122;50.236;11.734;2023-06-14T04:56:52;19.60;53.00
29031;DHT22;16122;50.236;11.734;2023-06-14T04:59:21;19.60;53.00
29031;DHT22;16122;50.236;11.734;2023-06-14T05:01:51;19.60;53.20
29031;DHT22;16122;50.236;11.734;2023-06-14T05:04:19;19.60;53.50
29031;DHT22;16122;50.236;11.734;2023-06-14T05:06:45;19.60;54.00
29031;DHT22;16122;50.236;11.734;2023-06-14T05:09:14;19.60;54.00
29031;DHT22;16122;50.236;11.734;2023-06-14T05:11:42;19.60;53.90
29031;DHT22;16122;50.236;11.734;2023-06-14T05:14:11;19.60;54.20
29031;DHT22;16122;50.236;11.734;2023-06-14T05:16:37;19.60;54.50
29031;DHT22;16122;50.236;11.734;2023-06-14T05:19:04;19.70;54.60
29031;DHT22;16122;50.236;11.734;2023-06-14T05:21:30;19.70;54.70
29031;DHT22;16122;50.236;11.734;2023-06-14T05:23:59;19.70;54.70
29031;DHT22;16122;50.236;11.734;2023-06-14T05:26:25;19.70;54.50
29031;DHT22;16122;50.236;11.734;2023-06-14T05:28:57;19.70;53.80
29031;DHT22;16122;50.236;11.734;2023-06-14T05:31:26;19.70;53.60
29031;DHT22;16122;50.236;11.734;2023-06-14T05:33:52;19.70;53.50
29031;DHT22;16122;50.236;11.734;2023-06-14T05:36:19;19.70;53.50
29031;DHT22;16122;50.236;11.734;2023-06-14T05:38:45;19.70;53.30
29031;DHT22;16122;50.236;11.734;2023-06-14T05:41:11;19.70;53.20
29031;DHT22;16122;50.236;11.734;2023-06-14T05:43:37;19.70;53.20
29031;DHT22;16122;50.236;11.734;2023-06-14T05:46:03;19.70;53.10
29031;DHT22;16122;50.236;11.734;2023-06-14T05:48:30;19.60;53.00
29031;DHT22;16122;50.236;11.734;2023-06-14T05:50:56;19.60;53.00
29031;DHT22;16122;50.236;11.734;2023-06-14T05:53:22;19.70;53.00
29031;DHT22;16122;50.236;11.734;2023-06-14T05:55:50;19.60;52.90
29031;DHT22;16122;50.236;11.734;2023-06-14T05:58:17;19.60;52.90
29031;DHT22;16122;50.236;11.734;2023-06-14T06:00:43;19.70;53.00
29031;DHT22;16122;50.236;11.734;2023-06-14T06:03:08;19.70;53.00
29031;DHT22;16122;50.236;11.734;2023-06-14T06:05:36;19.70;53.00
29031;DHT22;16122;50.236;11.734;2023-06-14T06:08:04;19.60;52.90
29031;DHT22;16122;50.236;11.734;2023-06-14T06:10:30;19.60;52.90
29031;DHT22;16122;50.236;11.734;2023-06-14T06:12:55;19.60;53.00
29031;DHT22;16122;50.236;11.734;2023-06-14T06:15:21;19.70;53.20
29031;DHT22;16122;50.236;11.734;2023-06-14T06:17:47;19.70;53.00
29031;DHT22;16122;50.236;11.734;2023-06-14T06:20:13;19.70;53.10
29031;DHT22;16122;50.236;11.734;2023-06-14T06:22:39;19.70;53.00
29031;DHT22;16122;50.236;11.734;2023-06-14T06:25:05;19.70;53.20
29031;DHT22;16122;50.236;11.734;2023-06-14T06:27:32;19.70;53.20
29031;DHT22;16122;50.236;11.734;2023-06-14T06:29:58;19.70;53.10
29031;DHT22;16122;50.236;11.734;2023-06-14T06:32:24;19.70;53.10
29031;DHT22;16122;50.236;11.734;2023-06-14T06:34:50;19.70;53.20
29031;DHT22;16122;50.236;11.734;2023-06-14T06:37:16;19.70;53.20
29031;DHT22;16122;50.236;11.734;2023-06-14T06:39:41;19.70;53.30
29031;DHT22;16122;50.236;11.734;2023-06-14T06:42:08;19.70;53.20
29031;DHT22;16122;50.236;11.734;2023-06-14T06:44:36;19.60;53.10
29031;DHT22;16122;50.236;11.734;2023-06-14T06:47:02;19.70;53.10
29031;DHT22;16122;50.236;11.734;2023-06-14T06:49:28;19.70;53.20
29031;DHT22;16122;50.236;11.734;2023-06-14T06:52:05;19.70;53.00
29031;DHT22;16122;50.236;11.734;2023-06-14T06:54:31;19.70;53.00
29031;DHT22;16122;50.236;11.734;2023-06-14T06:56:57;19.70;52.90
29031;DHT22;16122;50.236;11.734;2023-06-14T06:59:24;19.70;52.90
29031;DHT22;16122;50.236;11.734;2023-06-14T07:01:50;19.70;52.80
29031;DHT22;16122;50.236;11.734;2023-06-14T07:04:16;19.70;52.80
29031;DHT22;16122;50.236;11.734;2023-06-14T07:06:42;19.70;52.80
29031;DHT22;16122;50.236;11.734;2023-06-14T07:09:08;19.70;52.70
29031;DHT22;16122;50.236;11.734;2023-06-14T07:11:39;19.70;52.70
29031;DHT22;16122;50.236;11.734;2023-06-14T07:14:05;19.70;52.80
29031;DHT22;16122;50.236;11.734;2023-06-14T07:16:31;19.70;52.70
29031;DHT22;16122;50.236;11.734;2023-06-14T07:18:57;19.70;52.60
29031;DHT22;16122;50.236;11.734;2023-06-14T07:21:23;19.70;52.70
29031;DHT22;16122;50.236;11.734;2023-06-14T07:23:52;19.70;52.70
29031;DHT22;16122;50.236;11.734;2023-06-14T07:26:18;19.70;52.70
29031;DHT22;16122;50.236;11.734;2023-06-14T07:28:44;19.70;52.80
29031;DHT22;16122;50.236;11.734;2023-06-14T07:31:14;19.70;53.00
29031;DHT22;16122;50.236;11.734;2023-06-14T07:33:41;19.70;52.40
29031;DHT22;16122;50.236;11.734;2023-06-14T07:36:07;19.60;51.90
29031;DHT22;16122;50.236;11.734;2023-06-14T07:38:33;19.60;52.00
29031;DHT22;16122;50.236;11.734;2023-06-14T07:41:00;19.60;52.40
29031;DHT22;16122;50.236;11.734;2023-06-14T07:43:26;19.60;52.40
29031;DHT22;16122;50.236;11.734;2023-06-14T07:45:52;19.60;52.40
29031;DHT22;16122;50.236;11.734;2023-06-14T07:48:18;19.60;52.50
29031;DHT22;16122;50.236;11.734;2023-06-14T07:50:44;19.70;52.60
29031;DHT22;16122;50.236;11.734;2023-06-14T07:53:10;19.60;52.60
29031;DHT22;16122;50.236;11.734;2023-06-14T07:55:36;19.60;52.60
29031;DHT22;16122;50.236;11.734;2023-06-14T07:58:09;19.60;52.60
29031;DHT22;16122;50.236;11.734;2023-06-14T08:00:36;19.70;52.70
29031;DHT22;16122;50.236;11.734;2023-06-14T08:03:02;19.60;52.50
29031;DHT22;16122;50.236;11.734;2023-06-14T08:05:28;19.60;52.60
29031;DHT22;16122;50.236;11.734;2023-06-14T08:07:55;19.60;52.60
29031;DHT22;16122;50.236;11.734;2023-06-14T08:10:22;19.60;52.50
29031;DHT22;16122;50.236;11.734;2023-06-14T08:12:48;19.60;51.60
29031;DHT22;16122;50.236;11.734;2023-06-14T08:15:18;19.50;52.20
29031;DHT22;16122;50.236;11.734;2023-06-14T08:17:44;19.50;52.20
29031;DHT22;16122;50.236;11.734;2023-06-14T08:20:11;19.50;51.90
29031;DHT22;16122;50.236;11.734;2023-06-14T08:22:38;19.50;51.80
29031;DHT22;16122;50.236;11.734;2023-06-14T08:25:05;19.50;51.90
29031;DHT22;16122;50.236;11.734;2023-06-14T08:27:32;19.50;52.00
29031;DHT22;16122;50.236;11.734;2023-06-14T08:29:58;19.50;51.60
29031;DHT22;16122;50.236;11.734;2023-06-14T08:32:24;19.50;52.10
29031;DHT22;16122;50.236;11.734;2023-06-14T08:34:50;19.50;52.30
29031;DHT22;16122;50.236;11.734;2023-06-14T08:37:16;19.50;52.50
29031;DHT22;16122;50.236;11.734;2023-06-14T08:39:42;19.50;52.40
29031;DHT22;16122;50.236;11.734;2023-06-14T08:42:09;19.50;52.80
29031;DHT22;16122;50.236;11.734;2023-06-14T08:44:36;19.50;52.60
29031;DHT22;16122;50.236;11.734;2023-06-14T08:47:02;19.50;53.00
29031;DHT22;16122;50.236;11.734;2023-06-14T08:49:30;19.50;52.80
29031;DHT22;16122;50.236;11.734;2023-06-14T08:52:00;19.50;52.80
29031;DHT22;16122;50.236;11.734;2023-06-14T08:54:29;19.50;52.90
29031;DHT22;16122;50.236;11.734;2023-06-14T08:56:59;19.50;53.10
29031;DHT22;16122;50.236;11.734;2023-06-14T08:59:29;19.50;52.70
29031;DHT22;16122;50.236;11.734;2023-06-14T09:01:56;19.50;53.10
29031;DHT22;16122;50.236;11.734;2023-06-14T09:04:25;19.50;52.80
29031;DHT22;16122;50.236;11.734;2023-06-14T09:06:55;19.50;52.70
29031;DHT22;16122;50.236;11.734;2023-06-14T09:09:22;19.50;53.20
29031;DHT22;16122;50.236;11.734;2023-06-14T09:11:50;19.40;52.90
29031;DHT22;16122;50.236;11.734;2023-06-14T09:14:18;19.40;53.90
29031;DHT22;16122;50.236;11.734;2023-06-14T09:16:44;19.50;53.30
29031;DHT22;16122;50.236;11.734;2023-06-14T09:19:31;19.50;53.10
29031;DHT22;16122;50.236;11.734;2023-06-14T09:21:56;19.50;53.10
29031;DHT22;16122;50.236;11.734;2023-06-14T09:24:24;19.50;53.00
29031;DHT22;16122;50.236;11.734;2023-06-14T09:26:51;19.50;52.90
29031;DHT22;16122;50.236;11.734;2023-06-14T09:29:20;19.50;52.60
29031;DHT22;16122;50.236;11.734;2023-06-14T09:31:47;19.50;53.10
29031;DHT22;16122;50.236;11.734;2023-06-14T09:34:13;19.50;53.40
29031;DHT22;16122;50.236;11.734;2023-06-14T09:36:40;19.50;53.20
29031;DHT22;16122;50.236;11.734;2023-06-14T09:39:08;19.50;53.30
29031;DHT22;16122;50.236;11.734;2023-06-14T09:41:39;19.50;53.40
29031;DHT22;16122;50.236;11.734;2023-06-14T09:44:06;19.50;53.30
29031;DHT22;16122;50.236;11.734;2023-06-14T09:46:34;19.50;53.00
29031;DHT22;16122;50.236;11.734;2023-06-14T09:49:01;19.50;53.50
29031;DHT22;16122;50.236;11.734;2023-06-14T09:51:28;19.50;53.30
29031;DHT22;16122;50.236;11.734;2023-06-14T09:54:00;19.50;53.40
29031;DHT22;16122;50.236;11.734;2023-06-14T09:56:37;19.60;53.40
29031;DHT22;16122;50.236;11.734;2023-06-14T09:59:05;19.50;53.30
29031;DHT22;16122;50.236;11.734;2023-06-14T10:01:34;19.50;53.40
29031;DHT22;16122;50.236;11.734;2023-06-14T10:04:05;19.50;53.80
29031;DHT22;16122;50.236;11.734;2023-06-14T10:06:32;19.50;53.80
29031;DHT22;16122;50.236;11.734;2023-06-14T10:09:04;19.60;53.70
29031;DHT22;16122;50.236;11.734;2023-06-14T10:11:31;19.60;53.80
29031;DHT22;16122;50.236;11.734;2023-06-14T10:13:58;19.60;54.00
29031;DHT22;16122;50.236;11.734;2023-06-14T10:19:27;19.60;54.50
29031;DHT22;16122;50.236;11.734;2023-06-14T10:22:05;19.60;54.70
29031;DHT22;16122;50.236;11.734;2023-06-14T10:24:41;19.60;54.90
29031;DHT22;16122;50.236;11.734;2023-06-14T10:27:08;19.60;55.10
29031;DHT22;16122;50.236;11.734;2023-06-14T10:32:22;19.60;55.40
29031;DHT22;16122;50.236;11.734;2023-06-14T10:34:56;19.70;55.60
29031;DHT22;16122;50.236;11.734;2023-06-14T10:37:22;19.60;55.70
29031;DHT22;16122;50.236;11.734;2023-06-14T10:39:48;19.60;55.30
29031;DHT22;16122;50.236;11.734;2023-06-14T10:42:15;19.60;55.30
29031;DHT22;16122;50.236;11.734;2023-06-14T10:47:10;19.70;55.30
29031;DHT22;16122;50.236;11.734;2023-06-14T10:49:40;19.70;55.30
29031;DHT22;16122;50.236;11.734;2023-06-14T10:52:15;19.60;55.20
29031;DHT22;16122;50.236;11.734;2023-06-14T10:57:22;19.70;55.30
29031;DHT22;16122;50.236;11.734;2023-06-14T10:59:47;19.70;55.30
29031;DHT22;16122;50.236;11.734;2023-06-14T11:05:03;19.70;55.30
29031;DHT22;16122;50.236;11.734;2023-06-14T11:10:38;19.70;55.40
29031;DHT22;16122;50.236;11.734;2023-06-14T11:13:05;19.70;55.40
29031;DHT22;16122;50.236;11.734;2023-06-14T11:15:33;19.70;55.40
29031;DHT22;16122;50.236;11.734;2023-06-14T11:18:06;19.70;55.40
29031;DHT22;16122;50.236;11.734;2023-06-14T11:20:34;19.70;55.40
29031;DHT22;16122;50.236;11.734;2023-06-14T11:23:01;19.70;55.30
29031;DHT22;16122;50.236;11.734;2023-06-14T11:25:27;19.70;55.30
29031;DHT22;16122;50.236;11.734;2023-06-14T11:27:54;19.70;55.30
29031;DHT22;16122;50.236;11.734;2023-06-14T11:30:21;19.70;55.30
29031;DHT22;16122;50.236;11.734;2023-06-14T11:32:48;19.70;55.30
29031;DHT22;16122;50.236;11.734;2023-06-14T11:35:14;19.70;55.20
29031;DHT22;16122;50.236;11.734;2023-06-14T11:37:41;19.70;55.20
29031;DHT22;16122;50.236;11.734;2023-06-14T11:40:11;19.70;55.20
29031;DHT22;16122;50.236;11.734;2023-06-14T11:42:39;19.70;55.00
29031;DHT22;16122;50.236;11.734;2023-06-14T11:45:08;19.70;55.10
29031;DHT22;16122;50.236;11.734;2023-06-14T11:47:34;19.70;54.70
29031;DHT22;16122;50.236;11.734;2023-06-14T11:50:02;19.70;54.00
29031;DHT22;16122;50.236;11.734;2023-06-14T11:52:28;19.70;53.20
29031;DHT22;16122;50.236;11.734;2023-06-14T11:54:54;19.70;53.40
29031;DHT22;16122;50.236;11.734;2023-06-14T11:57:21;19.70;53.20
29031;DHT22;16122;50.236;11.734;2023-06-14T11:59:47;19.70;53.60
29031;DHT22;16122;50.236;11.734;2023-06-14T12:02:15;19.70;53.90
29031;DHT22;16122;50.236;11.734;2023-06-14T12:04:42;19.70;53.80
29031;DHT22;16122;50.236;11.734;2023-06-14T12:07:11;19.70;53.70
29031;DHT22;16122;50.236;11.734;2023-06-14T12:12:23;19.70;53.90
29031;DHT22;16122;50.236;11.734;2023-06-14T12:14:51;19.70;53.80
29031;DHT22;16122;50.236;11.734;2023-06-14T12:17:18;19.70;53.80
29031;DHT22;16122;50.236;11.734;2023-06-14T12:19:45;19.70;54.50
29031;DHT22;16122;50.236;11.734;2023-06-14T12:22:12;19.70;53.90
29031;DHT22;16122;50.236;11.734;2023-06-14T12:24:38;19.70;53.60
29031;DHT22;16122;50.236;11.734;2023-06-14T12:27:05;19.70;53.70
29031;DHT22;16122;50.236;11.734;2023-06-14T12:29:32;19.80;53.60
29031;DHT22;16122;50.236;11.734;2023-06-14T12:31:58;19.80;53.80
29031;DHT22;16122;50.236;11.734;2023-06-14T12:34:24;19.80;53.90
29031;DHT22;16122;50.236;11.734;2023-06-14T12:36:50;19.70;53.90
29031;DHT22;16122;50.236;11.734;2023-06-14T12:39:16;19.80;53.70
29031;DHT22;16122;50.236;11.734;2023-06-14T12:41:42;19.70;53.10
29031;DHT22;16122;50.236;11.734;2023-06-14T12:44:09;19.70;53.60
29031;DHT22;16122;50.236;11.734;2023-06-14T12:46:36;19.80;52.90
29031;DHT22;16122;50.236;11.734;2023-06-14T12:49:02;19.70;52.70
29031;DHT22;16122;50.236;11.734;2023-06-14T12:51:28;19.70;52.40
29031;DHT22;16122;50.236;11.734;2023-06-14T12:53:53;19.70;52.50
29031;DHT22;16122;50.236;11.734;2023-06-14T12:56:19;19.70;51.90
29031;DHT22;16122;50.236;11.734;2023-06-14T12:58:45;19.70;52.30
29031;DHT22;16122;50.236;11.734;2023-06-14T13:01:11;19.70;52.50
29031;DHT22;16122;50.236;11.734;2023-06-14T13:03:37;19.70;52.70
29031;DHT22;16122;50.236;11.734;2023-06-14T13:06:03;19.80;52.90
29031;DHT22;16122;50.236;11.734;2023-06-14T13:08:29;19.70;52.80
29031;DHT22;16122;50.236;11.734;2023-06-14T13:10:56;19.70;52.40
29031;DHT22;16122;50.236;11.734;2023-06-14T13:13:22;19.70;52.10
29031;DHT22;16122;50.236;11.734;2023-06-14T13:15:48;19.80;52.20
29031;DHT22;16122;50.236;11.734;2023-06-14T13:18:15;19.70;51.50
29031;DHT22;16122;50.236;11.734;2023-06-14T13:20:42;19.70;51.60
29031;DHT22;16122;50.236;11.734;2023-06-14T13:23:08;19.80;52.30
29031;DHT22;16122;50.236;11.734;2023-06-14T13:25:36;19.70;52.40
29031;DHT22;16122;50.236;11.734;2023-06-14T13:28:03;19.70;52.00
29031;DHT22;16122;50.236;11.734;2023-06-14T13:30:29;19.70;51.90
29031;DHT22;16122;50.236;11.734;2023-06-14T13:32:55;19.70;52.40
29031;DHT22;16122;50.236;11.734;2023-06-14T13:35:22;19.70;52.40
29031;DHT22;16122;50.236;11.734;2023-06-14T13:37:48;19.70;52.70
29031;DHT22;16122;50.236;11.734;2023-06-14T13:40:13;19.80;53.00
29031;DHT22;16122;50.236;11.734;2023-06-14T13:42:39;19.70;53.00
29031;DHT22;16122;50.236;11.734;2023-06-14T13:45:06;19.80;53.20
29031;DHT22;16122;50.236;11.734;2023-06-14T13:47:32;19.80;53.10
29031;DHT22;16122;50.236;11.734;2023-06-14T13:49:58;19.80;53.20
29031;DHT22;16122;50.236;11.734;2023-06-14T13:52:25;19.70;53.20
29031;DHT22;16122;50.236;11.734;2023-06-14T13:54:50;19.80;53.40
29031;DHT22;16122;50.236;11.734;2023-06-14T13:57:17;19.70;53.30
29031;DHT22;16122;50.236;11.734;2023-06-14T13:59:43;19.80;53.50
29031;DHT22;16122;50.236;11.734;2023-06-14T14:02:10;19.80;53.60
29031;DHT22;16122;50.236;11.734;2023-06-14T14:04:37;19.80;53.60
29031;DHT22;16122;50.236;11.734;2023-06-14T14:07:04;19.80;53.60
29031;DHT22;16122;50.236;11.734;2023-06-14T14:09:32;19.80;53.70
29031;DHT22;16122;50.236;11.734;2023-06-14T14:11:58;19.80;53.80
29031;DHT22;16122;50.236;11.734;2023-06-14T14:14:24;19.80;53.80
29031;DHT22;16122;50.236;11.734;2023-06-14T14:16:51;19.80;53.90
29031;DHT22;16122;50.236;11.734;2023-06-14T14:19:17;19.80;54.00
29031;DHT22;16122;50.236;11.734;2023-06-14T14:21:47;19.80;54.00
29031;DHT22;16122;50.236;11.734;2023-06-14T14:24:13;19.80;54.00
29031;DHT22;16122;50.236;11.734;2023-06-14T14:26:39;19.80;54.00
29031;DHT22;16122;50.236;11.734;2023-06-14T14:29:06;19.80;54.00
29031;DHT22;16122;50.236;11.734;2023-06-14T14:31:32;19.80;54.00
29031;DHT22;16122;50.236;11.734;2023-06-14T14:33:57;19.80;54.10
29031;DHT22;16122;50.236;11.734;2023-06-14T14:36:23;19.80;54.10
29031;DHT22;16122;50.236;11.734;2023-06-14T14:38:49;19.90;54.10
29031;DHT22;16122;50.236;11.734;2023-06-14T14:41:17;19.80;54.10
29031;DHT22;16122;50.236;11.734;2023-06-14T14:43:43;19.80;54.10
29031;DHT22;16122;50.236;11.734;2023-06-14T14:46:09;19.80;54.10
29031;DHT22;16122;50.236;11.734;2023-06-14T14:48:35;19.90;54.30
29031;DHT22;16122;50.236;11.734;2023-06-14T14:51:00;19.90;54.30
29031;DHT22;16122;50.236;11.734;2023-06-14T14:53:26;19.90;54.40
29031;DHT22;16122;50.236;11.734;2023-06-14T14:55:52;19.90;54.40
29031;DHT22;16122;50.236;11.734;2023-06-14T14:58:18;19.90;54.50
29031;DHT22;16122;50.236;11.734;2023-06-14T15:00:45;19.90;54.50
29031;DHT22;16122;50.236;11.734;2023-06-14T15:03:11;19.90;54.50
29031;DHT22;16122;50.236;11.734;2023-06-14T15:05:37;19.90;54.50
29031;DHT22;16122;50.236;11.734;2023-06-14T15:08:03;19.90;54.50
29031;DHT22;16122;50.236;11.734;2023-06-14T15:10:30;20.00;54.60
29031;DHT22;16122;50.236;11.734;2023-06-14T15:12:57;19.90;54.10
29031;DHT22;16122;50.236;11.734;2023-06-14T15:15:22;19.90;54.00
29031;DHT22;16122;50.236;11.734;2023-06-14T15:17:48;19.90;53.80
29031;DHT22;16122;50.236;11.734;2023-06-14T15:20:14;20.00;53.70
29031;DHT22;16122;50.236;11.734;2023-06-14T15:22:41;20.00;53.60
29031;DHT22;16122;50.236;11.734;2023-06-14T15:25:07;19.90;53.50
29031;DHT22;16122;50.236;11.734;2023-06-14T15:27:33;19.90;53.50
29031;DHT22;16122;50.236;11.734;2023-06-14T15:29:59;20.00;53.60
29031;DHT22;16122;50.236;11.734;2023-06-14T15:32:24;20.00;53.50
29031;DHT22;16122;50.236;11.734;2023-06-14T15:34:51;20.00;53.50
29031;DHT22;16122;50.236;11.734;2023-06-14T15:37:16;20.00;53.50
29031;DHT22;16122;50.236;11.734;2023-06-14T15:39:42;20.00;53.40
29031;DHT22;16122;50.236;11.734;2023-06-14T15:42:08;19.90;53.40